sensor_id;sensor_type;location;lat;lon;timestamp;P1;durP1;ratioP1;P2;durP2;ratioP2
46561;SDS011;32289;42.688;23.330;2023-02-04T00:02:33;6.28;;;2.92;;
46561;SDS011;32289;42.688;23.330;2023-02-04T00:06:14;8.25;;;2.92;;
46561;SDS011;32289;42.688;23.330;2023-02-04T00:09:55;4.63;;;2.47;;
46561;SDS011;32289;42.688;23.330;2023-02-04T00:13:35;4.72;;;2.13;;
46561;SDS011;32289;42.688;23.330;2023-02-04T00:17:16;3.60;;;2.03;;
46561;SDS011;32289;42.688;23.330;2023-02-04T00:20:57;7.10;;;2.25;;
46561;SDS011;32289;42.688;23.330;2023-02-04T00:24:40;3.47;;;2.08;;
46561;SDS011;32289;42.688;23.330;2023-02-04T00:28:27;5.53;;;2.58;;
46561;SDS011;32289;42.688;23.330;2023-02-04T00:32:07;8.63;;;1.50;;
46561;SDS011;32289;42.688;23.330;2023-02-04T00:35:48;3.78;;;2.28;;
46561;SDS011;32289;42.688;23.330;2023-02-04T00:39:31;5.60;;;2.55;;
46561;SDS011;32289;42.688;23.330;2023-02-04T00:43:12;4.00;;;2.10;;
46561;SDS011;32289;42.688;23.330;2023-02-04T00:46:53;2.88;;;1.98;;
46561;SDS011;32289;42.688;23.330;2023-02-04T00:50:33;3.28;;;1.75;;
46561;SDS011;32289;42.688;23.330;2023-02-04T00:54:18;2.83;;;1.33;;
46561;SDS011;32289;42.688;23.330;2023-02-04T00:57:59;3.85;;;2.17;;
46561;SDS011;32289;42.688;23.330;2023-02-04T01:01:42;3.53;;;1.73;;
46561;SDS011;32289;42.688;23.330;2023-02-04T01:05:23;3.97;;;1.55;;
46561;SDS011;32289;42.688;23.330;2023-02-04T01:09:04;4.03;;;2.15;;
46561;SDS011;32289;42.688;23.330;2023-02-04T01:12:45;6.88;;;2.30;;
46561;SDS011;32289;42.688;23.330;2023-02-04T01:16:25;2.55;;;1.70;;
46561;SDS011;32289;42.688;23.330;2023-02-04T01:20:06;4.93;;;2.10;;
46561;SDS011;32289;42.688;23.330;2023-02-04T01:23:48;7.15;;;2.03;;
46561;SDS011;32289;42.688;23.330;2023-02-04T01:27:29;2.10;;;1.35;;
46561;SDS011;32289;42.688;23.330;2023-02-04T01:31:10;3.45;;;1.90;;
46561;SDS011;32289;42.688;23.330;2023-02-04T01:34:51;4.20;;;2.25;;
46561;SDS011;32289;42.688;23.330;2023-02-04T01:38:31;2.33;;;1.58;;
46561;SDS011;32289;42.688;23.330;2023-02-04T01:42:12;5.05;;;2.13;;
46561;SDS011;32289;42.688;23.330;2023-02-04T01:45:53;3.92;;;2.30;;
46561;SDS011;32289;42.688;23.330;2023-02-04T01:49:33;3.70;;;2.33;;
46561;SDS011;32289;42.688;23.330;2023-02-04T01:53:19;6.72;;;2.70;;
46561;SDS011;32289;42.688;23.330;2023-02-04T01:57:02;5.82;;;2.55;;
46561;SDS011;32289;42.688;23.330;2023-02-04T02:00:48;6.05;;;2.40;;
46561;SDS011;32289;42.688;23.330;2023-02-04T02:04:29;4.95;;;3.10;;
46561;SDS011;32289;42.688;23.330;2023-02-04T02:08:14;5.35;;;2.88;;
46561;SDS011;32289;42.688;23.330;2023-02-04T02:11:56;4.97;;;2.78;;
46561;SDS011;32289;42.688;23.330;2023-02-04T02:15:37;7.93;;;3.83;;
46561;SDS011;32289;42.688;23.330;2023-02-04T02:19:20;16.67;;;3.72;;
46561;SDS011;32289;42.688;23.330;2023-02-04T02:23:13;5.95;;;2.58;;
46561;SDS011;32289;42.688;23.330;2023-02-04T02:27:22;5.82;;;2.78;;
46561;SDS011;32289;42.688;23.330;2023-02-04T02:31:03;6.95;;;3.35;;
46561;SDS011;32289;42.688;23.330;2023-02-04T02:34:43;7.13;;;3.33;;
46561;SDS011;32289;42.688;23.330;2023-02-04T02:38:26;5.63;;;3.15;;
46561;SDS011;32289;42.688;23.330;2023-02-04T02:42:06;9.77;;;4.07;;
46561;SDS011;32289;42.688;23.330;2023-02-04T02:45:48;3.40;;;2.08;;
46561;SDS011;32289;42.688;23.330;2023-02-04T02:49:30;7.38;;;3.53;;
46561;SDS011;32289;42.688;23.330;2023-02-04T02:53:12;4.03;;;2.22;;
46561;SDS011;32289;42.688;23.330;2023-02-04T02:56:58;5.63;;;2.85;;
46561;SDS011;32289;42.688;23.330;2023-02-04T03:00:39;9.20;;;3.38;;
46561;SDS011;32289;42.688;23.330;2023-02-04T03:04:19;5.03;;;3.25;;
46561;SDS011;32289;42.688;23.330;2023-02-04T03:08:01;7.93;;;3.47;;
46561;SDS011;32289;42.688;23.330;2023-02-04T03:11:43;3.92;;;2.50;;
46561;SDS011;32289;42.688;23.330;2023-02-04T03:15:23;5.20;;;2.72;;
46561;SDS011;32289;42.688;23.330;2023-02-04T03:19:05;6.75;;;2.97;;
46561;SDS011;32289;42.688;23.330;2023-02-04T03:22:47;3.92;;;2.60;;
46561;SDS011;32289;42.688;23.330;2023-02-04T03:26:28;6.90;;;2.63;;
46561;SDS011;32289;42.688;23.330;2023-02-04T03:30:09;8.35;;;4.30;;
46561;SDS011;32289;42.688;23.330;2023-02-04T03:33:50;4.97;;;2.65;;
46561;SDS011;32289;42.688;23.330;2023-02-04T03:37:30;5.43;;;2.83;;
46561;SDS011;32289;42.688;23.330;2023-02-04T03:41:11;6.25;;;3.58;;
46561;SDS011;32289;42.688;23.330;2023-02-04T03:44:52;6.50;;;3.25;;
46561;SDS011;32289;42.688;23.330;2023-02-04T03:48:37;7.75;;;3.40;;
46561;SDS011;32289;42.688;23.330;2023-02-04T03:52:26;5.32;;;3.10;;
46561;SDS011;32289;42.688;23.330;2023-02-04T03:56:11;6.38;;;2.55;;
46561;SDS011;32289;42.688;23.330;2023-02-04T03:59:55;4.07;;;2.65;;
46561;SDS011;32289;42.688;23.330;2023-02-04T04:03:36;5.32;;;2.92;;
46561;SDS011;32289;42.688;23.330;2023-02-04T04:07:16;7.38;;;2.83;;
46561;SDS011;32289;42.688;23.330;2023-02-04T04:10:57;5.88;;;2.30;;
46561;SDS011;32289;42.688;23.330;2023-02-04T04:14:38;8.60;;;2.60;;
46561;SDS011;32289;42.688;23.330;2023-02-04T04:18:18;5.15;;;2.65;;
46561;SDS011;32289;42.688;23.330;2023-02-04T04:22:02;5.70;;;3.20;;
46561;SDS011;32289;42.688;23.330;2023-02-04T04:25:42;5.28;;;2.42;;
46561;SDS011;32289;42.688;23.330;2023-02-04T04:29:23;6.55;;;2.92;;
46561;SDS011;32289;42.688;23.330;2023-02-04T04:33:04;5.85;;;3.50;;
46561;SDS011;32289;42.688;23.330;2023-02-04T04:36:44;7.40;;;3.35;;
46561;SDS011;32289;42.688;23.330;2023-02-04T04:40:25;8.45;;;3.63;;
46561;SDS011;32289;42.688;23.330;2023-02-04T04:44:08;8.88;;;3.35;;
46561;SDS011;32289;42.688;23.330;2023-02-04T04:47:49;5.05;;;3.17;;
46561;SDS011;32289;42.688;23.330;2023-02-04T04:51:29;8.95;;;4.18;;
46561;SDS011;32289;42.688;23.330;2023-02-04T04:55:11;5.25;;;2.22;;
46561;SDS011;32289;42.688;23.330;2023-02-04T04:58:52;5.88;;;2.45;;
46561;SDS011;32289;42.688;23.330;2023-02-04T05:02:33;7.30;;;3.10;;
46561;SDS011;32289;42.688;23.330;2023-02-04T05:06:13;5.75;;;2.25;;
46561;SDS011;32289;42.688;23.330;2023-02-04T05:09:54;3.05;;;1.77;;
46561;SDS011;32289;42.688;23.330;2023-02-04T05:13:35;0.65;;;0.60;;
46561;SDS011;32289;42.688;23.330;2023-02-04T05:17:16;2.05;;;0.68;;
46561;SDS011;32289;42.688;23.330;2023-02-04T05:20:57;2.83;;;1.10;;
46561;SDS011;32289;42.688;23.330;2023-02-04T05:24:37;0.90;;;0.60;;
46561;SDS011;32289;42.688;23.330;2023-02-04T05:28:18;1.48;;;0.70;;
46561;SDS011;32289;42.688;23.330;2023-02-04T05:31:59;0.68;;;0.60;;
46561;SDS011;32289;42.688;23.330;2023-02-04T05:35:40;0.63;;;0.43;;
46561;SDS011;32289;42.688;23.330;2023-02-04T05:39:20;1.85;;;0.80;;
46561;SDS011;32289;42.688;23.330;2023-02-04T05:43:01;2.53;;;0.73;;
46561;SDS011;32289;42.688;23.330;2023-02-04T05:46:43;3.30;;;0.82;;
46561;SDS011;32289;42.688;23.330;2023-02-04T05:50:24;3.03;;;1.17;;
46561;SDS011;32289;42.688;23.330;2023-02-04T05:54:05;3.53;;;0.98;;
46561;SDS011;32289;42.688;23.330;2023-02-04T05:57:46;3.10;;;1.15;;
46561;SDS011;32289;42.688;23.330;2023-02-04T06:01:26;1.85;;;1.00;;
46561;SDS011;32289;42.688;23.330;2023-02-04T06:05:09;0.88;;;0.70;;
46561;SDS011;32289;42.688;23.330;2023-02-04T06:08:50;0.98;;;0.57;;
46561;SDS011;32289;42.688;23.330;2023-02-04T06:12:31;5.32;;;1.25;;
46561;SDS011;32289;42.688;23.330;2023-02-04T06:16:13;1.20;;;0.75;;
46561;SDS011;32289;42.688;23.330;2023-02-04T06:19:54;2.10;;;0.93;;
46561;SDS011;32289;42.688;23.330;2023-02-04T06:23:35;0.95;;;0.55;;
46561;SDS011;32289;42.688;23.330;2023-02-04T06:27:15;1.10;;;0.80;;
46561;SDS011;32289;42.688;23.330;2023-02-04T06:31:02;2.58;;;0.93;;
46561;SDS011;32289;42.688;23.330;2023-02-04T06:34:43;3.10;;;0.82;;
46561;SDS011;32289;42.688;23.330;2023-02-04T06:38:24;2.03;;;1.27;;
46561;SDS011;32289;42.688;23.330;2023-02-04T06:42:05;5.82;;;1.27;;
46561;SDS011;32289;42.688;23.330;2023-02-04T06:45:46;2.40;;;1.00;;
46561;SDS011;32289;42.688;23.330;2023-02-04T06:49:27;1.92;;;1.00;;
46561;SDS011;32289;42.688;23.330;2023-02-04T06:53:08;3.13;;;1.35;;
46561;SDS011;32289;42.688;23.330;2023-02-04T06:56:48;1.45;;;0.80;;
46561;SDS011;32289;42.688;23.330;2023-02-04T07:00:29;2.17;;;1.10;;
46561;SDS011;32289;42.688;23.330;2023-02-04T07:04:10;6.28;;;1.58;;
46561;SDS011;32289;42.688;23.330;2023-02-04T07:07:50;2.90;;;1.10;;
46561;SDS011;32289;42.688;23.330;2023-02-04T07:11:31;2.15;;;0.90;;
46561;SDS011;32289;42.688;23.330;2023-02-04T07:15:12;1.13;;;0.77;;
46561;SDS011;32289;42.688;23.330;2023-02-04T07:18:53;4.15;;;1.20;;
46561;SDS011;32289;42.688;23.330;2023-02-04T07:22:33;3.67;;;1.20;;
46561;SDS011;32289;42.688;23.330;2023-02-04T07:26:14;1.52;;;0.60;;
46561;SDS011;32289;42.688;23.330;2023-02-04T07:29:55;1.02;;;0.68;;
46561;SDS011;32289;42.688;23.330;2023-02-04T07:33:35;1.95;;;1.02;;
46561;SDS011;32289;42.688;23.330;2023-02-04T07:37:16;1.35;;;0.90;;
46561;SDS011;32289;42.688;23.330;2023-02-04T07:41:02;2.60;;;0.77;;
46561;SDS011;32289;42.688;23.330;2023-02-04T07:44:43;6.35;;;1.00;;
46561;SDS011;32289;42.688;23.330;2023-02-04T07:48:28;3.58;;;1.33;;
46561;SDS011;32289;42.688;23.330;2023-02-04T07:52:09;4.15;;;1.13;;
46561;SDS011;32289;42.688;23.330;2023-02-04T07:55:50;2.00;;;1.23;;
46561;SDS011;32289;42.688;23.330;2023-02-04T07:59:31;3.78;;;1.40;;
46561;SDS011;32289;42.688;23.330;2023-02-04T08:03:11;1.33;;;0.80;;
46561;SDS011;32289;42.688;23.330;2023-02-04T08:06:52;9.23;;;2.60;;
46561;SDS011;32289;42.688;23.330;2023-02-04T08:10:33;1.50;;;0.88;;
46561;SDS011;32289;42.688;23.330;2023-02-04T08:14:13;7.15;;;0.95;;
46561;SDS011;32289;42.688;23.330;2023-02-04T08:17:54;2.47;;;1.00;;
46561;SDS011;32289;42.688;23.330;2023-02-04T08:21:35;3.97;;;1.25;;
46561;SDS011;32289;42.688;23.330;2023-02-04T08:25:15;5.38;;;1.88;;
46561;SDS011;32289;42.688;23.330;2023-02-04T08:28:56;4.32;;;0.90;;
46561;SDS011;32289;42.688;23.330;2023-02-04T08:32:37;1.50;;;0.90;;
46561;SDS011;32289;42.688;23.330;2023-02-04T08:36:18;3.33;;;0.88;;
46561;SDS011;32289;42.688;23.330;2023-02-04T08:39:59;3.08;;;1.30;;
46561;SDS011;32289;42.688;23.330;2023-02-04T08:43:39;7.15;;;2.35;;
46561;SDS011;32289;42.688;23.330;2023-02-04T08:47:20;6.38;;;2.38;;
46561;SDS011;32289;42.688;23.330;2023-02-04T08:51:01;1.33;;;0.93;;
46561;SDS011;32289;42.688;23.330;2023-02-04T08:54:42;3.83;;;0.95;;
46561;SDS011;32289;42.688;23.330;2023-02-04T08:58:22;4.40;;;1.20;;
46561;SDS011;32289;42.688;23.330;2023-02-04T09:02:03;2.58;;;1.27;;
46561;SDS011;32289;42.688;23.330;2023-02-04T09:05:44;2.58;;;1.20;;
46561;SDS011;32289;42.688;23.330;2023-02-04T09:09:24;3.30;;;1.10;;
46561;SDS011;32289;42.688;23.330;2023-02-04T09:13:05;3.60;;;1.83;;
46561;SDS011;32289;42.688;23.330;2023-02-04T09:16:48;3.55;;;1.98;;
46561;SDS011;32289;42.688;23.330;2023-02-04T09:20:29;9.00;;;2.13;;
46561;SDS011;32289;42.688;23.330;2023-02-04T09:24:09;4.45;;;1.50;;
46561;SDS011;32289;42.688;23.330;2023-02-04T09:27:50;3.70;;;1.73;;
46561;SDS011;32289;42.688;23.330;2023-02-04T09:31:30;6.13;;;1.73;;
46561;SDS011;32289;42.688;23.330;2023-02-04T09:35:11;4.13;;;1.27;;
46561;SDS011;32289;42.688;23.330;2023-02-04T09:38:52;2.30;;;1.23;;
46561;SDS011;32289;42.688;23.330;2023-02-04T09:42:33;1.70;;;1.00;;
46561;SDS011;32289;42.688;23.330;2023-02-04T09:46:20;2.00;;;0.95;;
46561;SDS011;32289;42.688;23.330;2023-02-04T09:50:03;1.50;;;0.60;;
46561;SDS011;32289;42.688;23.330;2023-02-04T09:53:47;5.78;;;2.80;;
46561;SDS011;32289;42.688;23.330;2023-02-04T09:57:28;11.30;;;2.63;;
46561;SDS011;32289;42.688;23.330;2023-02-04T10:01:16;8.25;;;2.85;;
46561;SDS011;32289;42.688;23.330;2023-02-04T10:04:58;2.38;;;1.50;;
46561;SDS011;32289;42.688;23.330;2023-02-04T10:08:39;2.95;;;1.55;;
46561;SDS011;32289;42.688;23.330;2023-02-04T10:12:21;5.88;;;1.55;;
46561;SDS011;32289;42.688;23.330;2023-02-04T10:16:03;3.10;;;1.63;;
46561;SDS011;32289;42.688;23.330;2023-02-04T10:19:51;3.42;;;1.23;;
46561;SDS011;32289;42.688;23.330;2023-02-04T10:23:32;4.55;;;1.83;;
46561;SDS011;32289;42.688;23.330;2023-02-04T10:27:12;5.43;;;1.10;;
46561;SDS011;32289;42.688;23.330;2023-02-04T10:30:56;4.03;;;1.90;;
46561;SDS011;32289;42.688;23.330;2023-02-04T10:34:38;5.45;;;1.58;;
46561;SDS011;32289;42.688;23.330;2023-02-04T10:38:19;2.25;;;1.23;;
46561;SDS011;32289;42.688;23.330;2023-02-04T10:42:00;2.75;;;1.40;;
46561;SDS011;32289;42.688;23.330;2023-02-04T10:45:46;2.53;;;0.80;;
46561;SDS011;32289;42.688;23.330;2023-02-04T10:49:34;3.53;;;1.55;;
46561;SDS011;32289;42.688;23.330;2023-02-04T10:53:16;4.68;;;1.25;;
46561;SDS011;32289;42.688;23.330;2023-02-04T10:57:19;2.83;;;1.45;;
46561;SDS011;32289;42.688;23.330;2023-02-04T11:01:08;4.50;;;1.10;;
46561;SDS011;32289;42.688;23.330;2023-02-04T11:04:51;2.60;;;1.30;;
46561;SDS011;32289;42.688;23.330;2023-02-04T11:08:33;2.22;;;1.38;;
46561;SDS011;32289;42.688;23.330;2023-02-04T11:12:22;2.97;;;1.50;;
46561;SDS011;32289;42.688;23.330;2023-02-04T11:16:26;13.88;;;2.55;;
46561;SDS011;32289;42.688;23.330;2023-02-04T11:20:12;1.92;;;1.00;;
46561;SDS011;32289;42.688;23.330;2023-02-04T11:27:53;1.50;;;1.00;;
46561;SDS011;32289;42.688;23.330;2023-02-04T11:35:22;3.20;;;1.50;;
46561;SDS011;32289;42.688;23.330;2023-02-04T11:39:12;6.00;;;2.20;;
46561;SDS011;32289;42.688;23.330;2023-02-04T11:43:00;5.18;;;2.00;;
46561;SDS011;32289;42.688;23.330;2023-02-04T11:46:42;3.25;;;1.58;;
46561;SDS011;32289;42.688;23.330;2023-02-04T11:50:31;4.20;;;1.17;;
46561;SDS011;32289;42.688;23.330;2023-02-04T11:54:14;2.85;;;1.08;;
46561;SDS011;32289;42.688;23.330;2023-02-04T11:57:58;9.10;;;3.72;;
46561;SDS011;32289;42.688;23.330;2023-02-04T12:01:39;6.68;;;2.75;;
46561;SDS011;32289;42.688;23.330;2023-02-04T12:05:21;6.97;;;2.80;;
46561;SDS011;32289;42.688;23.330;2023-02-04T12:09:06;5.50;;;2.78;;
46561;SDS011;32289;42.688;23.330;2023-02-04T12:12:56;4.70;;;1.33;;
46561;SDS011;32289;42.688;23.330;2023-02-04T12:16:49;3.33;;;1.00;;
46561;SDS011;32289;42.688;23.330;2023-02-04T12:20:30;5.50;;;2.97;;
46561;SDS011;32289;42.688;23.330;2023-02-04T12:24:11;2.85;;;1.70;;
46561;SDS011;32289;42.688;23.330;2023-02-04T12:27:52;3.08;;;1.63;;
46561;SDS011;32289;42.688;23.330;2023-02-04T12:31:34;6.15;;;2.33;;
46561;SDS011;32289;42.688;23.330;2023-02-04T12:35:15;8.63;;;3.67;;
46561;SDS011;32289;42.688;23.330;2023-02-04T12:38:56;7.68;;;3.85;;
46561;SDS011;32289;42.688;23.330;2023-02-04T12:42:39;4.18;;;1.92;;
46561;SDS011;32289;42.688;23.330;2023-02-04T12:46:20;3.13;;;1.55;;
46561;SDS011;32289;42.688;23.330;2023-02-04T12:50:01;6.55;;;1.98;;
46561;SDS011;32289;42.688;23.330;2023-02-04T12:53:42;7.15;;;2.45;;
46561;SDS011;32289;42.688;23.330;2023-02-04T12:57:23;5.22;;;1.80;;
46561;SDS011;32289;42.688;23.330;2023-02-04T13:01:03;12.00;;;4.40;;
46561;SDS011;32289;42.688;23.330;2023-02-04T13:04:44;7.15;;;2.67;;
46561;SDS011;32289;42.688;23.330;2023-02-04T13:08:25;6.82;;;2.38;;
46561;SDS011;32289;42.688;23.330;2023-02-04T13:12:06;17.35;;;5.13;;
46561;SDS011;32289;42.688;23.330;2023-02-04T13:15:47;3.67;;;2.13;;
46561;SDS011;32289;42.688;23.330;2023-02-04T13:19:27;2.60;;;1.17;;
46561;SDS011;32289;42.688;23.330;2023-02-04T13:23:08;1.95;;;0.80;;
46561;SDS011;32289;42.688;23.330;2023-02-04T13:26:49;2.88;;;1.58;;
46561;SDS011;32289;42.688;23.330;2023-02-04T13:30:29;2.95;;;1.17;;
46561;SDS011;32289;42.688;23.330;2023-02-04T13:34:10;0.88;;;0.63;;
46561;SDS011;32289;42.688;23.330;2023-02-04T13:37:51;1.27;;;0.70;;
46561;SDS011;32289;42.688;23.330;2023-02-04T13:41:31;2.38;;;1.42;;
46561;SDS011;32289;42.688;23.330;2023-02-04T13:45:12;2.15;;;1.10;;
46561;SDS011;32289;42.688;23.330;2023-02-04T13:48:55;6.47;;;1.58;;
46561;SDS011;32289;42.688;23.330;2023-02-04T13:52:35;3.33;;;1.73;;
46561;SDS011;32289;42.688;23.330;2023-02-04T13:56:16;3.53;;;1.08;;
46561;SDS011;32289;42.688;23.330;2023-02-04T13:59:57;5.03;;;2.10;;
46561;SDS011;32289;42.688;23.330;2023-02-04T14:03:38;8.73;;;3.40;;
46561;SDS011;32289;42.688;23.330;2023-02-04T14:07:19;16.60;;;6.00;;
46561;SDS011;32289;42.688;23.330;2023-02-04T14:11:00;6.53;;;2.33;;
46561;SDS011;32289;42.688;23.330;2023-02-04T14:14:40;1.73;;;0.93;;
46561;SDS011;32289;42.688;23.330;2023-02-04T14:18:21;1.92;;;0.98;;
46561;SDS011;32289;42.688;23.330;2023-02-04T14:22:02;2.92;;;1.08;;
46561;SDS011;32289;42.688;23.330;2023-02-04T14:25:42;5.00;;;1.75;;
46561;SDS011;32289;42.688;23.330;2023-02-04T14:29:23;9.18;;;4.43;;
46561;SDS011;32289;42.688;23.330;2023-02-04T14:33:04;14.02;;;5.15;;
46561;SDS011;32289;42.688;23.330;2023-02-04T14:36:45;2.25;;;1.02;;
46561;SDS011;32289;42.688;23.330;2023-02-04T14:40:25;0.82;;;0.68;;
46561;SDS011;32289;42.688;23.330;2023-02-04T14:44:06;2.40;;;1.08;;
46561;SDS011;32289;42.688;23.330;2023-02-04T14:47:47;3.13;;;1.38;;
46561;SDS011;32289;42.688;23.330;2023-02-04T14:51:27;7.05;;;3.03;;
46561;SDS011;32289;42.688;23.330;2023-02-04T14:55:08;4.45;;;2.03;;
46561;SDS011;32289;42.688;23.330;2023-02-04T14:58:50;2.17;;;0.98;;
46561;SDS011;32289;42.688;23.330;2023-02-04T15:02:31;1.50;;;0.80;;
46561;SDS011;32289;42.688;23.330;2023-02-04T15:06:12;5.60;;;1.63;;
46561;SDS011;32289;42.688;23.330;2023-02-04T15:09:52;2.40;;;0.82;;
46561;SDS011;32289;42.688;23.330;2023-02-04T15:13:33;2.85;;;1.00;;
46561;SDS011;32289;42.688;23.330;2023-02-04T15:17:14;2.72;;;1.35;;
46561;SDS011;32289;42.688;23.330;2023-02-04T15:20:54;1.95;;;1.08;;
46561;SDS011;32289;42.688;23.330;2023-02-04T15:24:35;4.80;;;2.22;;
46561;SDS011;32289;42.688;23.330;2023-02-04T15:28:16;7.28;;;2.42;;
46561;SDS011;32289;42.688;23.330;2023-02-04T15:31:57;1.95;;;1.05;;
46561;SDS011;32289;42.688;23.330;2023-02-04T15:35:37;8.07;;;1.80;;
46561;SDS011;32289;42.688;23.330;2023-02-04T15:43:19;5.40;;;2.00;;
46561;SDS011;32289;42.688;23.330;2023-02-04T15:47:00;4.28;;;1.33;;
46561;SDS011;32289;42.688;23.330;2023-02-04T15:50:41;3.00;;;1.02;;
46561;SDS011;32289;42.688;23.330;2023-02-04T15:54:22;4.05;;;1.40;;
46561;SDS011;32289;42.688;23.330;2023-02-04T15:58:03;2.63;;;1.60;;
46561;SDS011;32289;42.688;23.330;2023-02-04T16:01:43;17.73;;;4.68;;
46561;SDS011;32289;42.688;23.330;2023-02-04T16:05:24;7.72;;;2.60;;
46561;SDS011;32289;42.688;23.330;2023-02-04T16:09:05;6.25;;;2.15;;
46561;SDS011;32289;42.688;23.330;2023-02-04T16:12:46;3.08;;;1.50;;
46561;SDS011;32289;42.688;23.330;2023-02-04T16:16:30;2.42;;;1.20;;
46561;SDS011;32289;42.688;23.330;2023-02-04T16:20:15;8.15;;;1.90;;
46561;SDS011;32289;42.688;23.330;2023-02-04T16:23:56;7.28;;;1.48;;
46561;SDS011;32289;42.688;23.330;2023-02-04T16:27:37;3.45;;;1.80;;
46561;SDS011;32289;42.688;23.330;2023-02-04T16:31:18;4.88;;;1.42;;
46561;SDS011;32289;42.688;23.330;2023-02-04T16:34:59;3.80;;;1.45;;
46561;SDS011;32289;42.688;23.330;2023-02-04T16:38:41;2.30;;;1.73;;
46561;SDS011;32289;42.688;23.330;2023-02-04T16:42:22;4.47;;;2.05;;
46561;SDS011;32289;42.688;23.330;2023-02-04T16:46:03;2.60;;;1.48;;
46561;SDS011;32289;42.688;23.330;2023-02-04T16:49:44;2.20;;;1.27;;
46561;SDS011;32289;42.688;23.330;2023-02-04T16:53:27;3.45;;;1.48;;
46561;SDS011;32289;42.688;23.330;2023-02-04T16:57:07;6.53;;;2.50;;
46561;SDS011;32289;42.688;23.330;2023-02-04T17:00:48;4.90;;;2.50;;
46561;SDS011;32289;42.688;23.330;2023-02-04T17:04:30;3.70;;;1.75;;
46561;SDS011;32289;42.688;23.330;2023-02-04T17:08:11;1.95;;;1.17;;
46561;SDS011;32289;42.688;23.330;2023-02-04T17:11:54;4.88;;;2.00;;
46561;SDS011;32289;42.688;23.330;2023-02-04T17:15:34;3.67;;;2.17;;
46561;SDS011;32289;42.688;23.330;2023-02-04T17:19:15;4.55;;;2.65;;
46561;SDS011;32289;42.688;23.330;2023-02-04T17:22:56;3.72;;;1.60;;
46561;SDS011;32289;42.688;23.330;2023-02-04T17:26:38;4.35;;;2.30;;
46561;SDS011;32289;42.688;23.330;2023-02-04T17:30:19;5.05;;;1.92;;
46561;SDS011;32289;42.688;23.330;2023-02-04T17:34:00;6.63;;;2.28;;
46561;SDS011;32289;42.688;23.330;2023-02-04T17:37:42;3.90;;;1.60;;
46561;SDS011;32289;42.688;23.330;2023-02-04T17:41:22;3.92;;;2.22;;
46561;SDS011;32289;42.688;23.330;2023-02-04T17:45:03;3.47;;;1.70;;
46561;SDS011;32289;42.688;23.330;2023-02-04T17:48:44;7.38;;;2.33;;
46561;SDS011;32289;42.688;23.330;2023-02-04T17:52:25;5.05;;;1.90;;
46561;SDS011;32289;42.688;23.330;2023-02-04T17:56:09;4.78;;;1.90;;
46561;SDS011;32289;42.688;23.330;2023-02-04T17:59:51;3.45;;;1.77;;
46561;SDS011;32289;42.688;23.330;2023-02-04T18:03:32;7.32;;;2.13;;
46561;SDS011;32289;42.688;23.330;2023-02-04T18:07:12;5.20;;;1.83;;
46561;SDS011;32289;42.688;23.330;2023-02-04T18:10:53;7.28;;;2.45;;
46561;SDS011;32289;42.688;23.330;2023-02-04T18:14:34;3.60;;;1.98;;
46561;SDS011;32289;42.688;23.330;2023-02-04T18:18:22;3.58;;;1.42;;
46561;SDS011;32289;42.688;23.330;2023-02-04T18:22:11;3.38;;;1.63;;
46561;SDS011;32289;42.688;23.330;2023-02-04T18:25:59;4.25;;;1.30;;
46561;SDS011;32289;42.688;23.330;2023-02-04T18:29:50;1.25;;;0.88;;
46561;SDS011;32289;42.688;23.330;2023-02-04T18:33:34;3.63;;;1.60;;
46561;SDS011;32289;42.688;23.330;2023-02-04T18:37:29;1.92;;;0.95;;
46561;SDS011;32289;42.688;23.330;2023-02-04T18:45:01;1.65;;;1.00;;
46561;SDS011;32289;42.688;23.330;2023-02-04T18:48:59;5.20;;;2.20;;
46561;SDS011;32289;42.688;23.330;2023-02-04T18:52:42;2.60;;;1.50;;
46561;SDS011;32289;42.688;23.330;2023-02-04T18:56:24;2.40;;;1.30;;
46561;SDS011;32289;42.688;23.330;2023-02-04T19:03:57;3.22;;;1.35;;
46561;SDS011;32289;42.688;23.330;2023-02-04T19:07:39;1.85;;;0.85;;
46561;SDS011;32289;42.688;23.330;2023-02-04T19:15:35;3.78;;;1.98;;
46561;SDS011;32289;42.688;23.330;2023-02-04T19:23:05;4.93;;;1.95;;
46561;SDS011;32289;42.688;23.330;2023-02-04T19:26:54;4.95;;;1.83;;
46561;SDS011;32289;42.688;23.330;2023-02-04T19:30:42;4.97;;;1.83;;
46561;SDS011;32289;42.688;23.330;2023-02-04T19:34:27;4.05;;;1.77;;
46561;SDS011;32289;42.688;23.330;2023-02-04T19:38:24;2.40;;;1.40;;
46561;SDS011;32289;42.688;23.330;2023-02-04T19:42:31;10.48;;;4.13;;
46561;SDS011;32289;42.688;23.330;2023-02-04T19:46:16;5.88;;;2.05;;
46561;SDS011;32289;42.688;23.330;2023-02-04T19:50:01;4.53;;;1.58;;
46561;SDS011;32289;42.688;23.330;2023-02-04T19:53:56;4.28;;;2.33;;
46561;SDS011;32289;42.688;23.330;2023-02-04T19:57:50;1.75;;;1.08;;
46561;SDS011;32289;42.688;23.330;2023-02-04T20:01:33;1.98;;;0.90;;
46561;SDS011;32289;42.688;23.330;2023-02-04T20:05:15;1.55;;;0.80;;
46561;SDS011;32289;42.688;23.330;2023-02-04T20:09:09;1.90;;;1.20;;
46561;SDS011;32289;42.688;23.330;2023-02-04T20:13:10;2.85;;;1.70;;
46561;SDS011;32289;42.688;23.330;2023-02-04T20:16:55;2.13;;;0.90;;
46561;SDS011;32289;42.688;23.330;2023-02-04T20:20:39;4.22;;;2.05;;
46561;SDS011;32289;42.688;23.330;2023-02-04T20:24:21;2.17;;;0.85;;
46561;SDS011;32289;42.688;23.330;2023-02-04T20:28:09;1.17;;;0.80;;
46561;SDS011;32289;42.688;23.330;2023-02-04T20:31:51;0.60;;;0.43;;
46561;SDS011;32289;42.688;23.330;2023-02-04T20:43:04;2.10;;;0.80;;
46561;SDS011;32289;42.688;23.330;2023-02-04T20:46:51;2.23;;;0.93;;
46561;SDS011;32289;42.688;23.330;2023-02-04T20:54:22;1.60;;;0.73;;
46561;SDS011;32289;42.688;23.330;2023-02-04T21:01:47;0.82;;;0.50;;
46561;SDS011;32289;42.688;23.330;2023-02-04T21:05:29;4.72;;;1.40;;
46561;SDS011;32289;42.688;23.330;2023-02-04T21:09:42;1.52;;;0.70;;
46561;SDS011;32289;42.688;23.330;2023-02-04T21:13:17;1.52;;;0.88;;
46561;SDS011;32289;42.688;23.330;2023-02-04T21:16:58;1.73;;;1.08;;
46561;SDS011;32289;42.688;23.330;2023-02-04T21:20:39;1.08;;;0.60;;
46561;SDS011;32289;42.688;23.330;2023-02-04T21:24:20;2.08;;;1.02;;
46561;SDS011;32289;42.688;23.330;2023-02-04T21:28:00;1.45;;;0.88;;
46561;SDS011;32289;42.688;23.330;2023-02-04T21:31:42;1.45;;;0.88;;
46561;SDS011;32289;42.688;23.330;2023-02-04T21:35:25;0.90;;;0.85;;
46561;SDS011;32289;42.688;23.330;2023-02-04T21:39:06;1.50;;;1.35;;
46561;SDS011;32289;42.688;23.330;2023-02-04T21:42:50;2.72;;;1.00;;
46561;SDS011;32289;42.688;23.330;2023-02-04T21:46:31;2.53;;;1.33;;
46561;SDS011;32289;42.688;23.330;2023-02-04T21:50:13;1.60;;;1.00;;
46561;SDS011;32289;42.688;23.330;2023-02-04T21:53:54;1.90;;;0.95;;
46561;SDS011;32289;42.688;23.330;2023-02-04T21:57:36;0.50;;;0.50;;
46561;SDS011;32289;42.688;23.330;2023-02-04T22:01:16;1.67;;;0.98;;
46561;SDS011;32289;42.688;23.330;2023-02-04T22:04:57;1.30;;;0.68;;
46561;SDS011;32289;42.688;23.330;2023-02-04T22:08:38;0.85;;;0.75;;
46561;SDS011;32289;42.688;23.330;2023-02-04T22:12:19;1.02;;;0.60;;
46561;SDS011;32289;42.688;23.330;2023-02-04T22:15:59;1.90;;;0.70;;
46561;SDS011;32289;42.688;23.330;2023-02-04T22:19:40;5.07;;;1.05;;
46561;SDS011;32289;42.688;23.330;2023-02-04T22:23:21;2.42;;;1.00;;
46561;SDS011;32289;42.688;23.330;2023-02-04T22:27:02;2.70;;;1.15;;
46561;SDS011;32289;42.688;23.330;2023-02-04T22:30:43;2.00;;;1.00;;
46561;SDS011;32289;42.688;23.330;2023-02-04T22:34:23;1.52;;;0.85;;
46561;SDS011;32289;42.688;23.330;2023-02-04T22:38:05;0.70;;;0.50;;
46561;SDS011;32289;42.688;23.330;2023-02-04T22:41:46;1.95;;;1.23;;